createdAt,value
2022-08-26T00:00:01.021Z,20.26
2022-08-26T00:01:01.060Z,20.24
2022-08-26T00:02:01.217Z,20.22
2022-08-26T00:03:01.205Z,20.24
2022-08-26T00:04:01.269Z,20.19
2022-08-26T00:05:01.222Z,20.21
2022-08-26T00:06:01.263Z,20.24
2022-08-26T00:07:01.313Z,20.26
2022-08-26T00:08:01.397Z,20.26
2022-08-26T00:09:01.486Z,20.24
2022-08-26T00:10:01.444Z,20.26
2022-08-26T00:11:01.504Z,20.24
2022-08-26T00:12:01.536Z,20.22
2022-08-26T00:13:01.598Z,20.21
2022-08-26T00:14:01.564Z,20.21
2022-08-26T00:15:01.638Z,20.21
2022-08-26T00:16:01.675Z,20.19
2022-08-26T00:17:01.728Z,20.17
2022-08-26T00:18:01.716Z,20.12
2022-08-26T00:19:01.757Z,20.14
2022-08-26T00:20:01.817Z,20.12
2022-08-26T00:21:01.864Z,20.11
2022-08-26T00:22:01.878Z,20.08
2022-08-26T00:23:01.946Z,20.07
2022-08-26T00:24:01.938Z,20.03
2022-08-26T00:25:01.957Z,20.03
2022-08-26T00:26:01.951Z,20.03
2022-08-26T00:27:01.999Z,20.04
2022-08-26T00:28:02.028Z,20.07
2022-08-26T00:29:02.060Z,20.04
2022-08-26T00:30:02.121Z,20.03
2022-08-26T00:31:02.081Z,20.02
2022-08-26T00:32:02.107Z,19.99
2022-08-26T00:33:02.074Z,19.96
2022-08-26T00:34:02.092Z,19.94
2022-08-26T00:35:02.120Z,19.94
2022-08-26T00:36:02.176Z,19.92
2022-08-26T00:37:02.203Z,19.90
2022-08-26T00:38:02.254Z,19.90
2022-08-26T00:39:02.277Z,19.87
2022-08-26T00:40:05.299Z,19.87
2022-08-26T00:41:02.346Z,19.85
2022-08-26T00:42:02.416Z,19.84
2022-08-26T00:43:02.467Z,19.78
2022-08-26T00:44:02.474Z,19.75
2022-08-26T00:45:02.466Z,19.75
2022-08-26T00:46:02.612Z,19.75
2022-08-26T00:47:02.567Z,19.74
2022-08-26T00:48:02.609Z,19.75
2022-08-26T00:49:02.601Z,19.74
2022-08-26T00:50:02.608Z,19.71
2022-08-26T00:51:02.646Z,19.71
2022-08-26T00:52:02.678Z,19.67
2022-08-26T00:53:02.730Z,19.70
2022-08-26T00:54:02.752Z,19.67
2022-08-26T00:55:02.817Z,19.70
2022-08-26T00:56:02.791Z,19.66
2022-08-26T00:57:02.841Z,19.66
2022-08-26T00:58:02.821Z,19.63
2022-08-26T00:59:02.870Z,19.64
2022-08-26T01:00:02.890Z,19.63
2022-08-26T01:01:02.954Z,19.64
2022-08-26T01:02:03.208Z,19.64
2022-08-26T01:03:02.990Z,19.60
2022-08-26T01:04:03.014Z,19.62
2022-08-26T01:05:03.415Z,19.56
2022-08-26T01:06:03.064Z,19.52
2022-08-26T01:07:03.063Z,19.55
2022-08-26T01:08:03.561Z,19.60
2022-08-26T01:09:03.127Z,19.67
2022-08-26T01:10:03.167Z,19.70
2022-08-26T01:11:03.176Z,19.74
2022-08-26T01:12:03.206Z,19.79
2022-08-26T01:13:03.267Z,19.85
2022-08-26T01:14:03.297Z,19.89
2022-08-26T01:15:03.337Z,19.93
2022-08-26T01:16:03.400Z,19.93
2022-08-26T01:17:03.368Z,19.97
2022-08-26T01:18:03.408Z,20.00
2022-08-26T01:19:03.456Z,20.04
2022-08-26T01:20:03.569Z,20.03
2022-08-26T01:21:03.523Z,20.00
2022-08-26T01:22:03.565Z,19.97
2022-08-26T01:23:03.773Z,19.92
2022-08-26T01:24:03.630Z,19.87
2022-08-26T01:25:03.867Z,19.84
2022-08-26T01:26:03.661Z,19.81
2022-08-26T01:27:03.741Z,19.79
2022-08-26T01:28:03.779Z,19.78
2022-08-26T01:29:03.843Z,19.77
2022-08-26T01:30:03.821Z,19.78
2022-08-26T01:31:03.863Z,19.75
2022-08-26T01:32:04.997Z,19.72
2022-08-26T01:33:03.958Z,19.71
2022-08-26T01:34:03.983Z,19.66
2022-08-26T01:35:04.034Z,19.66
2022-08-26T01:36:04.083Z,19.63
2022-08-26T01:37:04.105Z,19.62
2022-08-26T01:38:04.155Z,19.62
2022-08-26T01:39:05.946Z,19.59
2022-08-26T01:40:04.290Z,19.57
2022-08-26T01:41:04.267Z,19.55
2022-08-26T01:42:04.297Z,19.52
2022-08-26T01:43:04.394Z,19.49
2022-08-26T01:44:04.327Z,19.48
2022-08-26T01:45:04.390Z,19.44
2022-08-26T01:46:04.470Z,19.42
2022-08-26T01:47:05.177Z,19.44
2022-08-26T01:48:04.469Z,19.41
2022-08-26T01:49:04.519Z,19.42
2022-08-26T01:50:04.559Z,19.42
2022-08-26T01:51:04.610Z,19.44
2022-08-26T01:52:04.660Z,19.42
2022-08-26T01:53:04.709Z,19.41
2022-08-26T01:54:04.753Z,19.39
2022-08-26T01:55:04.811Z,19.38
2022-08-26T01:56:04.863Z,19.35
2022-08-26T01:57:04.884Z,19.37
2022-08-26T01:58:05.246Z,19.34
2022-08-26T01:59:04.982Z,19.30
2022-08-26T02:00:05.043Z,19.30
2022-08-26T02:01:05.108Z,19.30
2022-08-26T02:02:05.148Z,19.29
2022-08-26T02:03:05.198Z,19.29
2022-08-26T02:04:05.186Z,19.27
2022-08-26T02:05:05.213Z,19.26
2022-08-26T02:06:05.275Z,19.23
2022-08-26T02:07:05.314Z,19.23
2022-08-26T02:08:05.366Z,19.20
2022-08-26T02:09:05.396Z,19.22
2022-08-26T02:10:05.437Z,19.20
2022-08-26T02:11:05.496Z,19.20
2022-08-26T02:12:05.458Z,19.20
2022-08-26T02:13:05.513Z,19.17
2022-08-26T02:14:05.587Z,19.17
2022-08-26T02:15:05.900Z,19.17
2022-08-26T02:16:05.686Z,19.16
2022-08-26T02:17:05.668Z,19.15
2022-08-26T02:18:05.709Z,19.12
2022-08-26T02:19:05.749Z,19.11
2022-08-26T02:20:05.730Z,19.08
2022-08-26T02:21:06.753Z,19.09
2022-08-26T02:22:05.774Z,19.07
2022-08-26T02:23:05.895Z,19.07
2022-08-26T02:24:05.832Z,19.07
2022-08-26T02:25:05.871Z,19.01
2022-08-26T02:26:05.872Z,18.97
2022-08-26T02:27:05.923Z,19.00
2022-08-26T02:28:05.896Z,19.01
2022-08-26T02:29:05.915Z,18.98
2022-08-26T02:30:05.975Z,18.96
2022-08-26T02:31:06.065Z,18.94
2022-08-26T02:32:06.094Z,18.92
2022-08-26T02:33:06.264Z,18.94
2022-08-26T02:34:06.194Z,18.92
2022-08-26T02:35:06.275Z,18.91
2022-08-26T02:36:06.314Z,18.92
2022-08-26T02:37:06.376Z,18.94
2022-08-26T02:38:09.942Z,18.94
2022-08-26T02:39:06.478Z,18.92
2022-08-26T02:40:06.577Z,18.92
2022-08-26T02:41:06.598Z,18.92
2022-08-26T02:42:06.632Z,18.91
2022-08-26T02:43:08.560Z,18.91
2022-08-26T02:44:06.709Z,18.88
2022-08-26T02:45:06.689Z,18.88
2022-08-26T02:46:06.722Z,18.85
2022-08-26T02:47:06.809Z,18.83
2022-08-26T02:48:06.750Z,18.82
2022-08-26T02:49:06.800Z,18.82
2022-08-26T02:50:06.849Z,18.79
2022-08-26T02:51:06.870Z,18.79
2022-08-26T02:52:06.940Z,18.79
2022-08-26T02:53:07.171Z,18.76
2022-08-26T02:54:06.922Z,18.74
2022-08-26T02:55:06.973Z,18.71
2022-08-26T02:56:07.021Z,18.71
2022-08-26T02:57:07.061Z,18.68
2022-08-26T02:58:07.113Z,18.70
2022-08-26T02:59:07.164Z,18.68
2022-08-26T03:00:07.224Z,18.67
2022-08-26T03:01:07.316Z,18.64
2022-08-26T03:02:07.403Z,18.64
2022-08-26T03:03:07.484Z,18.64
2022-08-26T03:04:07.386Z,18.60
2022-08-26T03:05:07.429Z,18.61
2022-08-26T03:06:07.466Z,18.61
2022-08-26T03:07:07.495Z,18.63
2022-08-26T03:08:07.507Z,18.63
2022-08-26T03:09:07.567Z,18.63
2022-08-26T03:10:08.666Z,18.63
2022-08-26T03:11:07.578Z,18.64
2022-08-26T03:12:07.629Z,18.64
2022-08-26T03:13:07.963Z,18.61
2022-08-26T03:14:07.760Z,18.66
2022-08-26T03:15:17.634Z,18.67
2022-08-26T03:16:07.802Z,18.68
2022-08-26T03:17:07.800Z,18.70
2022-08-26T03:18:07.853Z,18.71
2022-08-26T03:19:07.892Z,18.71
2022-08-26T03:20:07.971Z,18.74
2022-08-26T03:21:07.951Z,18.71
2022-08-26T03:22:08.003Z,18.70
2022-08-26T03:23:08.213Z,18.71
2022-08-26T03:24:08.114Z,18.71
2022-08-26T03:25:08.163Z,18.70
2022-08-26T03:26:08.224Z,18.70
2022-08-26T03:27:08.223Z,18.66
2022-08-26T03:28:09.622Z,18.64
2022-08-26T03:29:08.334Z,18.61
2022-08-26T03:30:08.323Z,18.63
2022-08-26T03:31:08.482Z,18.61
2022-08-26T03:32:08.396Z,18.60
2022-08-26T03:33:08.472Z,18.60
2022-08-26T03:34:08.386Z,18.60
2022-08-26T03:35:08.436Z,18.61
2022-08-26T03:36:08.486Z,18.60
2022-08-26T03:37:08.537Z,18.58
2022-08-26T03:38:08.598Z,18.58
2022-08-26T03:39:08.582Z,18.58
2022-08-26T03:40:08.691Z,18.58
2022-08-26T03:41:08.669Z,18.58
2022-08-26T03:42:08.758Z,18.58
2022-08-26T03:43:09.853Z,18.63
2022-08-26T03:44:08.750Z,18.63
2022-08-26T03:45:08.797Z,18.66
2022-08-26T03:46:08.889Z,18.71
2022-08-26T03:47:08.850Z,18.76
2022-08-26T03:48:08.892Z,18.79
2022-08-26T03:49:08.948Z,18.81
2022-08-26T03:50:09.001Z,18.82
2022-08-26T03:51:09.002Z,18.83
2022-08-26T03:52:09.054Z,18.83
2022-08-26T03:53:12.827Z,18.86
2022-08-26T03:54:09.123Z,18.86
2022-08-26T03:55:09.083Z,18.86
2022-08-26T03:56:09.111Z,18.88
2022-08-26T03:57:09.134Z,18.91
2022-08-26T03:58:09.184Z,18.92
2022-08-26T03:59:09.251Z,18.92
2022-08-26T04:00:09.304Z,18.92
2022-08-26T04:01:09.325Z,18.94
2022-08-26T04:02:11.584Z,18.94
2022-08-26T04:03:10.065Z,18.92
2022-08-26T04:04:09.398Z,18.92
2022-08-26T04:05:09.392Z,18.94
2022-08-26T04:06:09.443Z,18.94
2022-08-26T04:07:09.427Z,18.97
2022-08-26T04:08:09.428Z,18.97
2022-08-26T04:09:09.448Z,19.01
2022-08-26T04:10:09.519Z,19.01
2022-08-26T04:11:09.529Z,19.04
2022-08-26T04:12:09.580Z,19.07
2022-08-26T04:13:09.807Z,19.09
2022-08-26T04:14:09.709Z,19.12
2022-08-26T04:15:09.731Z,19.16
2022-08-26T04:16:10.253Z,19.19
2022-08-26T04:17:09.831Z,19.22
2022-08-26T04:18:09.971Z,19.23
2022-08-26T04:19:09.871Z,19.23
2022-08-26T04:20:09.911Z,19.23
2022-08-26T04:21:09.882Z,19.22
2022-08-26T04:22:09.893Z,19.23
2022-08-26T04:23:09.944Z,19.20
2022-08-26T04:24:11.827Z,19.22
2022-08-26T04:25:10.054Z,19.20
2022-08-26T04:26:10.058Z,19.20
2022-08-26T04:27:10.034Z,19.20
2022-08-26T04:28:10.097Z,19.23
2022-08-26T04:29:10.167Z,19.27
2022-08-26T04:30:10.156Z,19.32
2022-08-26T04:31:10.186Z,19.37
2022-08-26T04:32:10.195Z,19.39
2022-08-26T04:33:13.156Z,19.42
2022-08-26T04:34:11.099Z,19.44
2022-08-26T04:35:10.225Z,19.45
2022-08-26T04:36:10.230Z,19.47
2022-08-26T04:37:10.222Z,19.48
2022-08-26T04:38:10.228Z,19.48
2022-08-26T04:39:10.249Z,19.47
2022-08-26T04:40:10.306Z,19.48
2022-08-26T04:41:14.926Z,19.48
2022-08-26T04:42:10.352Z,19.49
2022-08-26T04:43:10.370Z,19.49
2022-08-26T04:44:10.371Z,19.49
2022-08-26T04:45:11.788Z,19.52
2022-08-26T04:46:10.563Z,19.49
2022-08-26T04:47:10.493Z,19.48
2022-08-26T04:48:11.166Z,19.49
2022-08-26T04:49:10.602Z,19.47
2022-08-26T04:50:11.027Z,19.45
2022-08-26T04:51:10.633Z,19.47
2022-08-26T04:52:10.643Z,19.45
2022-08-26T04:53:10.654Z,19.44
2022-08-26T04:54:10.675Z,19.44
2022-08-26T04:55:10.664Z,19.44
2022-08-26T04:56:10.705Z,19.44
2022-08-26T04:57:10.767Z,19.45
2022-08-26T04:58:10.793Z,19.47
2022-08-26T04:59:16.624Z,19.47
2022-08-26T05:00:10.846Z,19.45
2022-08-26T05:01:10.955Z,19.45
2022-08-26T05:02:10.987Z,19.47
2022-08-26T05:03:11.017Z,19.47
2022-08-26T05:04:11.053Z,19.48
2022-08-26T05:06:37.288Z,19.52
2022-08-26T05:07:37.106Z,19.53
2022-08-26T05:08:37.117Z,19.55
2022-08-26T05:09:37.110Z,19.55
2022-08-26T05:10:37.107Z,19.53
2022-08-26T05:11:37.147Z,19.55
2022-08-26T05:12:37.201Z,19.55
2022-08-26T05:13:37.199Z,19.55
2022-08-26T05:14:37.268Z,19.56
2022-08-26T05:15:37.332Z,19.55
2022-08-26T05:16:37.337Z,19.55
2022-08-26T05:17:37.380Z,19.56
2022-08-26T05:18:37.409Z,19.57
2022-08-26T05:19:37.480Z,19.60
2022-08-26T05:20:37.471Z,19.63
2022-08-26T05:21:37.519Z,19.67
2022-08-26T05:22:37.491Z,19.71
2022-08-26T05:23:37.563Z,19.74
2022-08-26T05:24:37.651Z,19.79
2022-08-26T05:25:37.693Z,19.84
2022-08-26T05:26:37.677Z,19.93
2022-08-26T05:27:37.673Z,20.11
2022-08-26T05:28:37.661Z,20.32
2022-08-26T05:29:37.674Z,20.55
2022-08-26T05:30:37.730Z,20.74
2022-08-26T05:31:37.754Z,20.83
2022-08-26T05:32:37.767Z,20.88
2022-08-26T05:33:37.755Z,20.90
2022-08-26T05:34:37.754Z,20.89
2022-08-26T05:35:37.755Z,20.88
2022-08-26T05:36:37.869Z,20.89
2022-08-26T05:37:37.886Z,20.88
2022-08-26T05:38:37.876Z,20.90
2022-08-26T05:39:37.930Z,20.92
2022-08-26T05:40:38.043Z,20.95
2022-08-26T05:41:38.532Z,20.96
2022-08-26T05:42:38.038Z,21.01
2022-08-26T05:43:38.050Z,21.04
2022-08-26T05:44:53.585Z,21.05
2022-08-26T05:45:41.197Z,21.08
2022-08-26T05:46:38.202Z,21.11
2022-08-26T05:47:38.163Z,21.15
2022-08-26T05:48:38.233Z,21.17
2022-08-26T05:49:43.765Z,21.20
2022-08-26T05:50:38.322Z,21.23
2022-08-26T05:51:38.382Z,21.26
2022-08-26T05:52:38.433Z,21.26
2022-08-26T05:53:38.462Z,21.28
2022-08-26T05:54:38.474Z,21.32
2022-08-26T05:55:38.544Z,21.37
2022-08-26T05:56:38.618Z,21.40
2022-08-26T05:57:42.185Z,21.45
2022-08-26T05:58:38.705Z,21.53
2022-08-26T05:59:38.705Z,21.59
2022-08-26T06:00:38.696Z,21.65
2022-08-26T06:01:38.723Z,21.69
2022-08-26T06:02:38.846Z,21.70
2022-08-26T06:03:38.744Z,21.70
2022-08-26T06:04:38.778Z,21.70
2022-08-26T06:05:39.239Z,21.72
2022-08-26T06:06:38.818Z,21.75
2022-08-26T06:07:38.809Z,21.75
2022-08-26T06:08:38.839Z,21.72
2022-08-26T06:09:38.919Z,21.70
2022-08-26T06:10:38.920Z,21.66
2022-08-26T06:11:38.961Z,21.65
2022-08-26T06:12:38.961Z,21.68
2022-08-26T06:13:38.961Z,21.69
2022-08-26T06:14:38.990Z,21.69
2022-08-26T06:15:39.085Z,21.69
2022-08-26T06:16:40.834Z,21.72
2022-08-26T06:17:39.021Z,21.83
2022-08-26T06:18:39.023Z,21.89
2022-08-26T06:19:39.083Z,21.89
2022-08-26T06:20:39.116Z,21.92
2022-08-26T06:21:39.205Z,21.94
2022-08-26T06:22:39.225Z,22.00
2022-08-26T06:23:39.256Z,22.06
2022-08-26T06:24:39.325Z,22.12
2022-08-26T06:25:39.335Z,22.19
2022-08-26T06:26:39.354Z,22.26
2022-08-26T06:27:39.390Z,22.36
2022-08-26T06:28:39.427Z,22.52
2022-08-26T06:29:39.482Z,22.74
2022-08-26T06:30:39.528Z,22.91
2022-08-26T06:31:40.010Z,22.98
2022-08-26T06:32:39.602Z,22.98
2022-08-26T06:33:39.632Z,23.06
2022-08-26T06:34:39.699Z,23.26
2022-08-26T06:35:39.720Z,23.62
2022-08-26T06:36:39.767Z,23.86
2022-08-26T06:37:39.771Z,24.06
2022-08-26T06:38:39.782Z,24.24
2022-08-26T06:39:41.191Z,24.50
2022-08-26T06:40:39.863Z,24.85
2022-08-26T06:41:43.239Z,25.19
2022-08-26T06:42:39.863Z,25.48
2022-08-26T06:43:39.907Z,25.80
2022-08-26T06:44:41.093Z,25.77
2022-08-26T06:45:39.972Z,25.98
2022-08-26T06:46:40.057Z,26.03
2022-08-26T06:47:40.047Z,25.96
2022-08-26T06:48:40.046Z,26.10
2022-08-26T06:49:40.096Z,26.26
2022-08-26T06:50:40.148Z,26.24
2022-08-26T06:51:40.189Z,26.44
2022-08-26T06:52:40.219Z,26.52
2022-08-26T06:53:41.069Z,26.60
2022-08-26T06:54:40.291Z,26.68
2022-08-26T06:55:40.310Z,26.76
2022-08-26T06:56:40.352Z,27.10
2022-08-26T06:57:41.238Z,27.34
2022-08-26T06:58:40.595Z,27.60
2022-08-26T06:59:40.403Z,27.82
2022-08-26T07:00:40.434Z,28.10
2022-08-26T07:01:43.054Z,28.25
2022-08-26T07:02:40.752Z,28.20
2022-08-26T07:03:40.597Z,28.35
2022-08-26T07:04:41.331Z,28.46
2022-08-26T07:05:40.586Z,28.34
2022-08-26T07:06:43.336Z,28.49
2022-08-26T07:07:40.676Z,28.70
2022-08-26T07:08:41.465Z,29.05
2022-08-26T07:09:40.688Z,29.43
2022-08-26T07:10:40.749Z,29.73
2022-08-26T07:11:40.709Z,29.61
2022-08-26T07:12:40.749Z,29.68
2022-08-26T07:13:40.841Z,29.81
2022-08-26T07:14:40.896Z,29.96
2022-08-26T07:15:40.932Z,29.89
2022-08-26T07:16:40.940Z,30.01
2022-08-26T07:17:40.953Z,30.31
2022-08-26T07:18:41.006Z,29.98
2022-08-26T07:19:41.074Z,29.13
2022-08-26T07:20:41.063Z,28.72
2022-08-26T07:21:41.104Z,28.80
2022-08-26T07:22:41.147Z,28.83
2022-08-26T07:23:41.196Z,28.74
2022-08-26T07:24:41.250Z,29.12
2022-08-26T07:25:41.306Z,28.64
2022-08-26T07:26:43.121Z,28.40
2022-08-26T07:27:41.387Z,28.40
2022-08-26T07:28:43.237Z,28.33
2022-08-26T07:29:41.514Z,28.28
2022-08-26T07:30:41.507Z,28.71
2022-08-26T07:31:42.429Z,29.05
2022-08-26T07:32:41.611Z,28.62
2022-08-26T07:33:41.551Z,28.33
2022-08-26T07:34:41.919Z,28.40
2022-08-26T07:35:41.691Z,28.25
2022-08-26T07:36:41.623Z,28.37
2022-08-26T07:37:41.648Z,28.72
2022-08-26T07:38:41.649Z,29.10
2022-08-26T07:39:41.665Z,29.34
2022-08-26T07:40:41.704Z,29.31
2022-08-26T07:41:41.726Z,29.20
2022-08-26T07:42:41.775Z,29.34
2022-08-26T07:43:41.793Z,29.35
2022-08-26T07:44:41.773Z,29.40
2022-08-26T07:45:41.766Z,29.40
2022-08-26T07:46:41.785Z,29.21
2022-08-26T07:47:41.851Z,29.35
2022-08-26T07:48:46.064Z,29.37
2022-08-26T07:49:41.893Z,29.58
2022-08-26T07:50:50.227Z,29.55
2022-08-26T07:51:41.950Z,29.69
2022-08-26T07:52:41.953Z,29.95
2022-08-26T07:53:42.002Z,30.08
2022-08-26T07:54:42.005Z,30.29
2022-08-26T07:55:42.003Z,30.63
2022-08-26T07:56:42.043Z,30.69
2022-08-26T07:57:42.096Z,30.69
2022-08-26T07:58:42.111Z,30.56
2022-08-26T07:59:42.183Z,30.23
2022-08-26T08:00:42.213Z,30.43
2022-08-26T08:01:44.774Z,30.55
2022-08-26T08:02:42.277Z,30.44
2022-08-26T08:03:42.297Z,30.44
2022-08-26T08:04:42.394Z,30.17
2022-08-26T08:05:42.388Z,29.92
2022-08-26T08:06:43.853Z,29.87
2022-08-26T08:07:44.885Z,29.80
2022-08-26T08:08:42.521Z,29.90
2022-08-26T08:09:42.589Z,30.01
2022-08-26T08:10:42.639Z,30.29
2022-08-26T08:11:42.647Z,30.26
2022-08-26T08:12:42.620Z,30.20
2022-08-26T08:13:42.681Z,30.24
2022-08-26T08:14:42.651Z,30.06
2022-08-26T08:15:42.671Z,30.32
2022-08-26T08:16:47.054Z,30.56
2022-08-26T08:17:42.724Z,30.63
2022-08-26T08:18:42.796Z,30.56
2022-08-26T08:19:42.835Z,30.80
2022-08-26T08:20:47.694Z,31.14
2022-08-26T08:21:42.905Z,31.50
2022-08-26T08:22:42.966Z,31.50
2022-08-26T08:23:42.956Z,31.36
2022-08-26T08:24:42.947Z,30.62
2022-08-26T08:25:42.975Z,29.99
2022-08-26T08:26:43.005Z,29.46
2022-08-26T08:27:43.002Z,29.02
2022-08-26T08:28:43.015Z,29.24
2022-08-26T08:29:43.040Z,29.49
2022-08-26T08:30:43.132Z,29.92
2022-08-26T08:31:56.724Z,30.13
2022-08-26T08:32:43.358Z,30.18
2022-08-26T08:33:43.181Z,29.77
2022-08-26T08:35:43.921Z,30.11
2022-08-26T08:36:43.286Z,30.67
2022-08-26T08:37:43.313Z,30.98
2022-08-26T08:38:43.356Z,31.17
2022-08-26T08:39:43.719Z,31.26
2022-08-26T08:40:43.384Z,30.77
2022-08-26T08:41:43.365Z,30.02
2022-08-26T08:42:43.412Z,29.53
2022-08-26T08:43:43.367Z,29.20
2022-08-26T08:44:43.431Z,29.20
2022-08-26T08:45:43.446Z,29.22
2022-08-26T08:46:43.541Z,29.03
2022-08-26T08:47:43.431Z,28.94
2022-08-26T08:48:43.438Z,29.07
2022-08-26T08:49:43.449Z,29.02
2022-08-26T08:50:43.521Z,28.93
2022-08-26T08:51:43.570Z,28.90
2022-08-26T08:52:43.753Z,28.78
2022-08-26T08:53:43.621Z,28.96
2022-08-26T08:54:43.642Z,29.07
2022-08-26T08:55:43.670Z,29.27
2022-08-26T08:56:43.696Z,29.44
2022-08-26T08:57:43.704Z,29.59
2022-08-26T08:58:43.794Z,29.50
2022-08-26T08:59:43.774Z,29.32
2022-08-26T09:00:43.775Z,29.15
2022-08-26T09:01:43.835Z,29.06
2022-08-26T09:02:43.811Z,29.09
2022-08-26T09:03:43.867Z,28.84
2022-08-26T09:04:43.815Z,28.89
2022-08-26T09:05:48.541Z,28.93
2022-08-26T09:06:43.858Z,28.97
2022-08-26T09:07:43.879Z,28.96
2022-08-26T09:08:43.849Z,29.00
2022-08-26T09:09:43.851Z,28.97
2022-08-26T09:10:44.146Z,28.83
2022-08-26T09:11:43.891Z,29.20
2022-08-26T09:12:44.182Z,29.61
2022-08-26T09:13:43.934Z,29.57
2022-08-26T09:14:43.944Z,29.61
2022-08-26T09:15:44.032Z,29.98
2022-08-26T09:16:44.104Z,30.40
2022-08-26T09:17:44.049Z,30.92
2022-08-26T09:18:46.182Z,31.41
2022-08-26T09:19:44.046Z,31.26
2022-08-26T09:20:44.095Z,31.42
2022-08-26T09:21:44.120Z,31.77
2022-08-26T09:22:44.382Z,31.95
2022-08-26T09:23:44.131Z,32.07
2022-08-26T09:24:49.072Z,32.11
2022-08-26T09:25:44.215Z,31.79
2022-08-26T09:26:44.129Z,31.78
2022-08-26T09:27:44.173Z,31.62
2022-08-26T09:28:44.230Z,31.41
2022-08-26T09:29:44.367Z,31.00
2022-08-26T09:30:44.291Z,30.99
2022-08-26T09:31:44.271Z,31.17
2022-08-26T09:32:44.292Z,31.15
2022-08-26T09:33:44.342Z,31.39
2022-08-26T09:34:44.373Z,31.05
2022-08-26T09:35:44.387Z,30.38
2022-08-26T09:36:44.383Z,30.24
2022-08-26T09:38:44.445Z,30.89
2022-08-26T09:39:44.487Z,31.32
2022-08-26T09:40:44.559Z,31.62
2022-08-26T09:41:44.598Z,32.08
2022-08-26T09:42:44.669Z,32.12
2022-08-26T09:43:44.715Z,31.98
2022-08-26T09:44:44.767Z,32.09
2022-08-26T09:45:50.116Z,31.90
2022-08-26T09:46:44.841Z,31.69
2022-08-26T09:47:44.830Z,31.54
2022-08-26T09:48:44.831Z,31.50
2022-08-26T09:49:44.840Z,31.39
2022-08-26T09:50:44.916Z,31.55
2022-08-26T09:51:44.911Z,31.74
2022-08-26T09:52:44.971Z,31.51
2022-08-26T09:53:44.973Z,30.55
2022-08-26T09:54:46.018Z,30.35
2022-08-26T09:55:46.016Z,30.14
2022-08-26T09:56:45.022Z,30.16
2022-08-26T09:57:45.116Z,30.21
2022-08-26T09:58:45.155Z,30.40
2022-08-26T09:59:45.106Z,30.33
2022-08-26T10:00:45.116Z,30.17
2022-08-26T10:01:46.142Z,30.08
2022-08-26T10:02:47.661Z,30.16
2022-08-26T10:03:45.243Z,29.80
2022-08-26T10:04:46.234Z,29.64
2022-08-26T10:05:45.789Z,29.37
2022-08-26T10:06:45.222Z,29.22
2022-08-26T10:07:45.290Z,29.15
2022-08-26T10:08:47.678Z,29.22
2022-08-26T10:09:45.351Z,29.65
2022-08-26T10:10:45.400Z,29.83
2022-08-26T10:11:45.431Z,29.81
2022-08-26T10:12:45.412Z,30.10
2022-08-26T10:13:45.550Z,30.23
2022-08-26T10:15:48.743Z,30.33
2022-08-26T10:16:45.622Z,30.26
2022-08-26T10:17:45.506Z,30.44
2022-08-26T10:18:45.476Z,30.43
2022-08-26T10:19:55.775Z,30.03
2022-08-26T10:20:45.494Z,29.99
2022-08-26T10:21:45.527Z,30.24
2022-08-26T10:22:45.507Z,30.39
2022-08-26T10:23:45.577Z,30.32
2022-08-26T10:24:46.374Z,30.43
2022-08-26T10:25:45.629Z,30.17
2022-08-26T10:26:45.629Z,30.32
2022-08-26T10:27:51.123Z,30.51
2022-08-26T10:28:45.622Z,30.78
2022-08-26T10:29:45.661Z,31.15
2022-08-26T10:30:45.701Z,31.33
2022-08-26T10:31:45.727Z,31.00
2022-08-26T10:32:45.749Z,30.83
2022-08-26T10:33:45.784Z,30.89
2022-08-26T10:34:45.783Z,30.95
2022-08-26T10:35:45.805Z,30.88
2022-08-26T10:37:10.795Z,30.69
2022-08-26T10:37:45.845Z,30.74
2022-08-26T10:38:45.826Z,30.63
2022-08-26T10:39:46.000Z,30.77
2022-08-26T10:40:45.934Z,30.48
2022-08-26T10:41:45.848Z,30.40
2022-08-26T10:42:45.888Z,30.69
2022-08-26T10:43:45.888Z,30.67
2022-08-26T10:44:45.909Z,30.49
2022-08-26T10:45:46.050Z,30.56
2022-08-26T10:46:46.779Z,30.88
2022-08-26T10:47:46.070Z,30.96
2022-08-26T10:48:46.171Z,31.11
2022-08-26T10:49:46.191Z,31.20
2022-08-26T10:50:47.459Z,31.20
2022-08-26T10:51:46.287Z,31.54
2022-08-26T10:52:46.344Z,31.39
2022-08-26T10:53:46.424Z,31.05
2022-08-26T10:54:46.423Z,30.99
2022-08-26T10:55:46.509Z,31.13
2022-08-26T10:56:46.515Z,31.35
2022-08-26T10:57:46.529Z,30.95
2022-08-26T10:58:46.528Z,30.69
2022-08-26T10:59:46.559Z,30.16
2022-08-26T11:00:46.648Z,29.67
2022-08-26T11:01:47.070Z,29.67
2022-08-26T11:02:47.540Z,29.79
2022-08-26T11:03:46.709Z,29.53
2022-08-26T11:04:48.481Z,29.43
2022-08-26T11:05:46.737Z,29.40
2022-08-26T11:06:46.793Z,29.53
2022-08-26T11:07:46.830Z,29.74
2022-08-26T11:08:46.831Z,30.26
2022-08-26T11:09:46.858Z,30.69
2022-08-26T11:10:46.846Z,31.28
2022-08-26T11:11:47.026Z,31.74
2022-08-26T11:12:49.196Z,32.35
2022-08-26T11:13:47.006Z,32.45
2022-08-26T11:14:56.203Z,32.09
2022-08-26T11:15:47.064Z,31.90
2022-08-26T11:16:47.274Z,32.24
2022-08-26T11:17:47.105Z,32.41
2022-08-26T11:18:47.106Z,32.37
2022-08-26T11:20:00.102Z,32.26
2022-08-26T11:20:47.325Z,32.45
2022-08-26T11:21:47.677Z,32.81
2022-08-26T11:22:47.949Z,32.86
2022-08-26T11:23:50.178Z,32.63
2022-08-26T11:24:47.172Z,32.37
2022-08-26T11:25:47.150Z,32.16
2022-08-26T11:26:56.265Z,32.24
2022-08-26T11:27:47.182Z,32.16
2022-08-26T11:28:47.222Z,31.64
2022-08-26T11:29:47.283Z,31.36
2022-08-26T11:30:47.350Z,31.60
2022-08-26T11:31:47.381Z,31.81
2022-08-26T11:32:48.695Z,31.89
2022-08-26T11:33:47.384Z,32.01
2022-08-26T11:34:47.465Z,32.20
2022-08-26T11:35:47.444Z,32.44
2022-08-26T11:36:47.487Z,32.91
2022-08-26T11:37:47.547Z,32.63
2022-08-26T11:38:47.608Z,32.02
2022-08-26T11:39:52.623Z,31.50
2022-08-26T11:40:47.658Z,31.02
2022-08-26T11:41:47.736Z,31.39
2022-08-26T11:42:47.818Z,31.55
2022-08-26T11:43:47.762Z,30.91
2022-08-26T11:45:05.486Z,30.70
2022-08-26T11:45:47.882Z,30.21
2022-08-26T11:46:48.651Z,30.40
2022-08-26T11:47:49.316Z,30.95
2022-08-26T11:48:48.096Z,31.14
2022-08-26T11:49:48.022Z,31.25
2022-08-26T11:50:48.036Z,31.30
2022-08-26T11:51:48.359Z,30.93
2022-08-26T11:52:48.114Z,30.74
2022-08-26T11:53:48.145Z,30.71
2022-08-26T11:54:48.233Z,30.65
2022-08-26T11:55:48.844Z,30.44
2022-08-26T11:56:48.294Z,30.59
2022-08-26T11:57:48.226Z,30.46
2022-08-26T11:58:49.110Z,30.54
2022-08-26T11:59:48.292Z,30.40
2022-08-26T12:00:48.261Z,30.58
2022-08-26T12:01:49.119Z,30.93
2022-08-26T12:02:48.349Z,31.13
2022-08-26T12:03:48.514Z,30.99
2022-08-26T12:04:48.455Z,31.20
2022-08-26T12:05:48.460Z,31.33
2022-08-26T12:06:48.501Z,31.36
2022-08-26T12:07:48.591Z,31.52
2022-08-26T12:08:48.622Z,31.30
2022-08-26T12:09:48.610Z,31.04
2022-08-26T12:10:48.622Z,30.95
2022-08-26T12:11:48.623Z,31.10
2022-08-26T12:12:48.614Z,31.26
2022-08-26T12:13:48.685Z,31.69
2022-08-26T12:14:48.714Z,32.07
2022-08-26T12:15:48.722Z,32.29
2022-08-26T12:16:48.790Z,32.04
2022-08-26T12:17:53.384Z,32.04
2022-08-26T12:18:48.876Z,32.05
2022-08-26T12:19:48.867Z,32.20
2022-08-26T12:20:48.896Z,32.31
2022-08-26T12:21:48.939Z,32.31
2022-08-26T12:22:48.976Z,31.74
2022-08-26T12:23:49.001Z,31.70
2022-08-26T12:24:48.989Z,31.72
2022-08-26T12:25:48.991Z,31.90
2022-08-26T12:26:49.041Z,31.67
2022-08-26T12:27:53.589Z,31.64
2022-08-26T12:28:49.140Z,31.22
2022-08-26T12:29:49.219Z,30.86
2022-08-26T12:30:49.242Z,31.07
2022-08-26T12:31:49.271Z,31.51
2022-08-26T12:32:57.593Z,31.41
2022-08-26T12:33:49.254Z,30.88
2022-08-26T12:34:49.245Z,31.07
2022-08-26T12:35:51.477Z,31.48
2022-08-26T12:36:49.492Z,31.90
2022-08-26T12:37:49.397Z,32.12
2022-08-26T12:38:49.497Z,32.46
2022-08-26T12:39:49.525Z,32.85
2022-08-26T12:40:49.509Z,32.73
2022-08-26T12:41:49.558Z,32.49
2022-08-26T12:42:49.579Z,32.04
2022-08-26T12:43:49.634Z,31.62
2022-08-26T12:44:54.223Z,31.64
2022-08-26T12:45:49.761Z,31.64
2022-08-26T12:46:49.967Z,31.69
2022-08-26T12:47:49.722Z,31.62
2022-08-26T12:48:50.465Z,31.37
2022-08-26T12:49:49.833Z,31.59
2022-08-26T12:50:49.742Z,31.62
2022-08-26T12:51:49.773Z,31.20
2022-08-26T12:52:49.814Z,30.88
2022-08-26T12:53:49.856Z,31.15
2022-08-26T12:54:53.522Z,31.52
2022-08-26T12:55:49.915Z,31.18
2022-08-26T12:56:49.916Z,30.93